Pearsonia, Oklahoma
Current Conditions -  °F | °C
As of 6:53 AM on Sunday 28 Dec 2014 (Local Time) from KBVO Reporting Station
Clear Clear  
Wind Chill: 20°   Ceiling: Unl
Heat Index: 20°   Visibility: 10mi
Dew Point: 18°   Wind: 0mph
Humidity: 92%   Direction: NA
Pressure: 30.28"   Gusts: NA
Location:  36.8094°N, 96.3005°W
Report Text: KBVO 281253Z AUTO 00000KT 10SM CLR M07/M08 A3028 RMK AO2 SLP259 T10671078
Loading
Personal Weather Stations






























Interactive Weather Map New forecast layout! Learn more

10-Day Weather Forecast

Advertisements
Track Severe Weather on mobile